Time;durP1;ratioP1;P1;durP2;ratioP2;P2;SDS_P1;SDS_P2;PMS_P1;PMS_P2;Temp;Humidity;BMP_temperature;BMP_pressure;BME280_temperature;BME280_humidity;BME280_pressure;Samples;Min_cycle;Max_cycle;Signal;HPM_P1;HPM_P2
2022/08/15 00:01:00;;;;;;;11.10;10.20;;;;;;;;;;5086308;28;24494;-46
2022/08/15 00:03:29;;;;;;;12.10;11.00;;;;;;;;;;5086642;28;24381;-47
2022/08/15 00:05:55;;;;;;;11.85;10.90;;;;;;;;;;5086324;28;24410;-46
2022/08/15 00:08:20;;;;;;;11.93;10.93;;;;;;;;;;5086444;28;24422;-46
2022/08/15 00:10:46;;;;;;;11.53;10.53;;;;;;;;;;5086694;28;24378;-49
2022/08/15 00:13:18;;;;;;;11.00;10.10;;;;;;;;;;5086374;28;24475;-47
2022/08/15 00:15:44;;;;;;;11.13;10.23;;;;;;;;;;5086942;28;24404;-47
2022/08/15 00:18:10;;;;;;;11.88;10.82;;;;;;;;;;5086101;28;24480;-48
2022/08/15 00:20:38;;;;;;;12.20;11.00;;;;;;;;;;5086257;28;24446;-47
2022/08/15 00:23:06;;;;;;;11.02;10.13;;;;;;;;;;5088104;28;24401;-47
2022/08/15 00:25:31;;;;;;;11.85;10.85;;;;;;;;;;5090087;28;25037;-47
2022/08/15 00:27:56;;;;;;;11.23;10.13;;;;;;;;;;5089727;28;24486;-47
2022/08/15 00:30:22;;;;;;;12.33;11.23;;;;;;;;;;5090219;28;24497;-47
2022/08/15 00:32:55;;;;;;;11.88;10.95;;;;;;;;;;5089506;28;24455;-47
2022/08/15 00:35:36;;;;;;;12.60;11.50;;;;;;;;;;5090389;28;24440;-46
2022/08/15 00:38:01;;;;;;;12.00;10.90;;;;;;;;;;5089687;28;24511;-48
2022/08/15 00:40:26;;;;;;;11.73;10.70;;;;;;;;;;5089589;28;24603;-47
2022/08/15 00:42:51;;;;;;;12.53;11.50;;;;;;;;;;5090152;28;24448;-48
2022/08/15 00:45:17;;;;;;;11.97;10.93;;;;;;;;;;5089402;28;24962;-48
2022/08/15 00:47:42;;;;;;;12.30;11.20;;;;;;;;;;5089756;28;24430;-47
2022/08/15 00:50:10;;;;;;;12.40;11.30;;;;;;;;;;5089461;28;24383;-47
2022/08/15 00:52:36;;;;;;;11.43;10.63;;;;;;;;;;5089327;28;24934;-47
2022/08/15 00:55:07;;;;;;;12.53;11.53;;;;;;;;;;5089489;28;24535;-47
2022/08/15 00:57:35;;;;;;;12.10;11.10;;;;;;;;;;5089729;28;24410;-47
2022/08/15 01:00:04;;;;;;;12.00;10.90;;;;;;;;;;5089149;28;24501;-48
2022/08/15 01:02:30;;;;;;;13.20;11.90;;;;;;;;;;5089636;28;24387;-47
2022/08/15 01:04:56;;;;;;;12.05;11.05;;;;;;;;;;5089362;28;24389;-48
2022/08/15 01:07:22;;;;;;;12.23;11.23;;;;;;;;;;5089312;28;24389;-48
2022/08/15 01:09:49;;;;;;;12.30;11.20;;;;;;;;;;5088945;28;24384;-47
2022/08/15 01:12:16;;;;;;;13.10;11.90;;;;;;;;;;5088979;28;24401;-47
2022/08/15 01:14:43;;;;;;;12.85;11.75;;;;;;;;;;5088962;28;24992;-47
2022/08/15 01:17:08;;;;;;;13.55;12.38;;;;;;;;;;5089228;28;24451;-47
2022/08/15 01:19:36;;;;;;;13.53;12.23;;;;;;;;;;5089172;28;24386;-47
2022/08/15 01:22:01;;;;;;;13.43;12.23;;;;;;;;;;5088651;28;24523;-47
2022/08/15 01:24:50;;;;;;;14.00;12.70;;;;;;;;;;5088878;28;24495;-47
2022/08/15 01:27:16;;;;;;;12.50;11.30;;;;;;;;;;5088608;28;25019;-47
2022/08/15 01:29:41;;;;;;;13.23;12.03;;;;;;;;;;5088942;28;24485;-47
2022/08/15 01:32:07;;;;;;;13.10;11.90;;;;;;;;;;5088793;28;24413;-47
2022/08/15 01:34:32;;;;;;;13.00;11.90;;;;;;;;;;5088192;28;24982;-47
2022/08/15 01:36:57;;;;;;;12.98;11.68;;;;;;;;;;5088525;28;24386;-46
2022/08/15 01:39:28;;;;;;;12.50;11.40;;;;;;;;;;5088631;28;25107;-47
2022/08/15 01:41:57;;;;;;;12.93;11.73;;;;;;;;;;5088333;28;24418;-45
2022/08/15 01:44:30;;;;;;;12.73;11.63;;;;;;;;;;5088298;28;24398;-46
2022/08/15 01:47:06;;;;;;;13.05;11.95;;;;;;;;;;5088444;28;24973;-47
2022/08/15 01:49:35;;;;;;;13.48;12.27;;;;;;;;;;5088395;28;24971;-46
2022/08/15 01:52:01;;;;;;;13.20;12.10;;;;;;;;;;5088458;28;24526;-46
2022/08/15 01:54:29;;;;;;;12.55;11.45;;;;;;;;;;5088039;28;24758;-46
2022/08/15 01:56:55;;;;;;;12.80;11.60;;;;;;;;;;5088156;28;25055;-47
2022/08/15 01:59:22;;;;;;;13.37;12.17;;;;;;;;;;5088057;28;24999;-46
2022/08/15 02:01:49;;;;;;;13.02;11.82;;;;;;;;;;5088234;28;24502;-46
2022/08/15 02:04:16;;;;;;;13.13;11.95;;;;;;;;;;5087914;28;24444;-46
2022/08/15 02:06:42;;;;;;;11.90;10.90;;;;;;;;;;5087866;28;24386;-46
2022/08/15 02:09:08;;;;;;;13.40;12.10;;;;;;;;;;5087940;28;24393;-47
2022/08/15 02:11:34;;;;;;;12.30;11.20;;;;;;;;;;5088225;28;24395;-46
2022/08/15 02:13:59;;;;;;;13.05;11.85;;;;;;;;;;5088154;28;24450;-46
2022/08/15 02:16:27;;;;;;;14.63;13.20;;;;;;;;;;5087605;28;24894;-47
2022/08/15 02:18:52;;;;;;;15.00;13.60;;;;;;;;;;5088111;28;24481;-46
2022/08/15 02:21:18;;;;;;;12.87;11.77;;;;;;;;;;5087424;28;24524;-46
2022/08/15 02:23:44;;;;;;;13.20;12.10;;;;;;;;;;5087775;28;24393;-45
2022/08/15 02:26:09;;;;;;;13.63;12.32;;;;;;;;;;5087792;28;24401;-45
2022/08/15 02:28:34;;;;;;;13.18;11.98;;;;;;;;;;5088019;28;25061;-47
2022/08/15 02:31:00;;;;;;;13.80;12.50;;;;;;;;;;5087215;28;25152;-47
2022/08/15 02:33:27;;;;;;;13.50;12.20;;;;;;;;;;5087653;28;24471;-47
2022/08/15 02:35:52;;;;;;;12.88;11.77;;;;;;;;;;5087709;28;24466;-47
2022/08/15 02:38:17;;;;;;;13.00;11.90;;;;;;;;;;5087330;28;24441;-54
2022/08/15 02:40:43;;;;;;;13.83;12.60;;;;;;;;;;5087178;28;24855;-46
2022/08/15 02:43:09;;;;;;;13.90;12.50;;;;;;;;;;5087572;28;24849;-46
2022/08/15 02:45:38;;;;;;;13.70;12.50;;;;;;;;;;5087062;28;24891;-47
2022/08/15 02:48:04;;;;;;;12.48;11.38;;;;;;;;;;5086541;28;24975;-46
2022/08/15 02:50:29;;;;;;;13.50;12.30;;;;;;;;;;5087410;28;24402;-46
2022/08/15 02:52:54;;;;;;;13.27;12.07;;;;;;;;;;5087372;28;24961;-47
2022/08/15 02:55:20;;;;;;;14.60;13.30;;;;;;;;;;5087158;28;24414;-47
2022/08/15 02:57:46;;;;;;;13.73;12.43;;;;;;;;;;5087432;28;24459;-46
2022/08/15 03:00:15;;;;;;;12.48;11.38;;;;;;;;;;5086765;28;24407;-46
2022/08/15 03:02:55;;;;;;;12.95;11.75;;;;;;;;;;5086910;28;24467;-47
2022/08/15 03:05:22;;;;;;;13.10;11.90;;;;;;;;;;5087175;28;24397;-48
2022/08/15 03:07:47;;;;;;;13.67;12.47;;;;;;;;;;5087319;28;24850;-45
2022/08/15 03:10:12;;;;;;;13.30;12.20;;;;;;;;;;5087055;28;24937;-46
2022/08/15 03:12:47;;;;;;;13.70;12.43;;;;;;;;;;5087002;28;24727;-45
2022/08/15 03:15:12;;;;;;;13.10;11.80;;;;;;;;;;5086962;28;24398;-46
2022/08/15 03:17:38;;;;;;;12.95;11.82;;;;;;;;;;5086744;28;24406;-47
2022/08/15 03:20:05;;;;;;;12.35;11.25;;;;;;;;;;5086861;28;24391;-46
2022/08/15 03:22:38;;;;;;;13.93;12.63;;;;;;;;;;5087153;28;24494;-46
2022/08/15 03:25:04;;;;;;;12.98;11.88;;;;;;;;;;5086600;28;24455;-47
2022/08/15 03:27:30;;;;;;;13.20;12.00;;;;;;;;;;5086913;28;24399;-47
2022/08/15 03:29:55;;;;;;;13.65;12.45;;;;;;;;;;5086414;28;24414;-47
2022/08/15 03:32:20;;;;;;;13.30;12.18;;;;;;;;;;5086718;28;24459;-46
2022/08/15 03:34:45;;;;;;;13.48;12.30;;;;;;;;;;5086867;28;24765;-47
2022/08/15 03:37:10;;;;;;;14.48;13.15;;;;;;;;;;5086748;28;24939;-46
2022/08/15 03:39:35;;;;;;;13.77;12.57;;;;;;;;;;5086670;28;24396;-46
2022/08/15 03:42:07;;;;;;;13.32;12.02;;;;;;;;;;5086639;28;24454;-47
2022/08/15 03:44:32;;;;;;;12.73;11.63;;;;;;;;;;5086907;28;24383;-45
2022/08/15 03:46:57;;;;;;;13.18;11.88;;;;;;;;;;5086600;28;25005;-46
2022/08/15 03:49:22;;;;;;;13.93;12.63;;;;;;;;;;5086716;28;24402;-46
2022/08/15 03:51:47;;;;;;;12.80;11.70;;;;;;;;;;5086855;28;24402;-46
2022/08/15 03:54:13;;;;;;;13.45;12.15;;;;;;;;;;5086683;28;24832;-45
2022/08/15 03:56:38;;;;;;;13.40;12.20;;;;;;;;;;5086265;28;24443;-47
2022/08/15 03:59:03;;;;;;;13.50;12.30;;;;;;;;;;5089827;28;24410;-47
2022/08/15 04:01:30;;;;;;;13.52;12.32;;;;;;;;;;5090190;28;24844;-46
2022/08/15 04:03:55;;;;;;;14.50;13.10;;;;;;;;;;5090507;28;24459;-47
2022/08/15 04:06:22;;;;;;;14.32;12.93;;;;;;;;;;5090213;28;24795;-46
2022/08/15 04:08:49;;;;;;;14.15;12.85;;;;;;;;;;5090351;28;24394;-46
2022/08/15 04:11:15;;;;;;;14.10;12.75;;;;;;;;;;5090187;28;24430;-46
2022/08/15 04:13:41;;;;;;;13.10;12.00;;;;;;;;;;5090197;28;24402;-47
2022/08/15 04:16:07;;;;;;;14.00;12.60;;;;;;;;;;5090201;28;24395;-47
2022/08/15 04:18:33;;;;;;;14.97;13.57;;;;;;;;;;5090373;28;24390;-47
2022/08/15 04:21:00;;;;;;;13.25;12.13;;;;;;;;;;5089832;28;24538;-46
2022/08/15 04:23:26;;;;;;;13.10;12.00;;;;;;;;;;5090281;28;24391;-46
2022/08/15 04:25:51;;;;;;;12.95;11.85;;;;;;;;;;5090138;28;24406;-46
2022/08/15 04:28:18;;;;;;;13.30;12.00;;;;;;;;;;5089860;28;24483;-46
2022/08/15 04:30:44;;;;;;;13.50;12.20;;;;;;;;;;5089974;28;24929;-47
2022/08/15 04:33:11;;;;;;;13.00;11.80;;;;;;;;;;5089943;28;24425;-48
2022/08/15 04:35:37;;;;;;;13.38;12.27;;;;;;;;;;5090020;28;24387;-46
2022/08/15 04:38:03;;;;;;;13.13;12.02;;;;;;;;;;5089863;28;24834;-46
2022/08/15 04:40:29;;;;;;;13.65;12.30;;;;;;;;;;5089742;28;25034;-46
2022/08/15 04:42:54;;;;;;;13.03;11.63;;;;;;;;;;5089436;28;24386;-49
2022/08/15 04:45:21;;;;;;;12.90;11.80;;;;;;;;;;5089969;28;24386;-46
2022/08/15 04:47:46;;;;;;;13.32;12.13;;;;;;;;;;5089506;28;24488;-46
2022/08/15 04:50:11;;;;;;;14.30;12.90;;;;;;;;;;5089481;28;24378;-47
2022/08/15 04:52:47;;;;;;;13.35;11.70;;;;;;;;;;5089455;28;24405;-45
2022/08/15 04:55:13;;;;;;;12.35;11.25;;;;;;;;;;5089571;28;24434;-46
2022/08/15 04:57:39;;;;;;;12.10;10.90;;;;;;;;;;5089346;28;24459;-45
2022/08/15 05:00:05;;;;;;;12.80;11.60;;;;;;;;;;5089428;28;24924;-47
2022/08/15 05:02:30;;;;;;;12.75;11.45;;;;;;;;;;5089585;28;24501;-47
2022/08/15 05:04:55;;;;;;;12.30;11.30;;;;;;;;;;5089552;28;24864;-45
2022/08/15 05:07:21;;;;;;;12.60;11.50;;;;;;;;;;5088984;28;24481;-47
2022/08/15 05:09:46;;;;;;;12.40;11.30;;;;;;;;;;5088280;28;24402;-46
2022/08/15 05:12:12;;;;;;;12.40;11.40;;;;;;;;;;5089213;28;24393;-46
2022/08/15 05:14:37;;;;;;;12.10;10.83;;;;;;;;;;5089419;28;24413;-46
2022/08/15 05:17:02;;;;;;;12.10;11.10;;;;;;;;;;5089070;28;24904;-46
2022/08/15 05:19:27;;;;;;;12.60;11.50;;;;;;;;;;5089081;28;24383;-46
2022/08/15 05:21:52;;;;;;;13.30;11.52;;;;;;;;;;5089065;28;24800;-47
2022/08/15 05:24:18;;;;;;;12.17;10.97;;;;;;;;;;5088858;28;24425;-47
2022/08/15 05:26:43;;;;;;;11.55;10.65;;;;;;;;;;5089378;28;24459;-46
2022/08/15 05:29:08;;;;;;;11.20;10.30;;;;;;;;;;5088424;28;24958;-46
2022/08/15 05:31:33;;;;;;;11.73;10.63;;;;;;;;;;5089251;28;24967;-46
2022/08/15 05:34:00;;;;;;;11.33;10.33;;;;;;;;;;5089085;28;24463;-46
2022/08/15 05:36:25;;;;;;;11.75;10.75;;;;;;;;;;5088825;28;24481;-45
2022/08/15 05:38:53;;;;;;;13.57;12.47;;;;;;;;;;5088829;28;24493;-47
2022/08/15 05:41:18;;;;;;;13.10;12.02;;;;;;;;;;5087987;28;24476;-46
2022/08/15 05:44:09;;;;;;;11.30;10.40;;;;;;;;;;5089043;28;24455;-46
2022/08/15 05:46:41;;;;;;;10.80;10.00;;;;;;;;;;5088918;28;25029;-47
2022/08/15 05:49:15;;;;;;;13.23;12.03;;;;;;;;;;5088552;28;24440;-47
2022/08/15 05:52:04;;;;;;;13.07;11.88;;;;;;;;;;5088532;28;24752;-47
2022/08/15 05:54:36;;;;;;;12.88;11.77;;;;;;;;;;5077572;28;24817;-47
2022/08/15 05:57:04;;;;;;;12.73;11.82;;;;;;;;;;5088275;28;24413;-45
2022/08/15 05:59:50;;;;;;;12.75;11.75;;;;;;;;;;5087925;28;24440;-47
2022/08/15 06:02:18;;;;;;;12.05;10.95;;;;;;;;;;5088071;28;24501;-46
2022/08/15 06:04:46;;;;;;;12.02;11.02;;;;;;;;;;5088452;28;24485;-46
2022/08/15 06:07:13;;;;;;;11.93;10.87;;;;;;;;;;5088015;28;24383;-46
2022/08/15 06:09:38;;;;;;;13.30;12.20;;;;;;;;;;5088171;28;24791;-46
2022/08/15 06:12:07;;;;;;;12.00;11.00;;;;;;;;;;5088169;28;25009;-46
2022/08/15 06:14:34;;;;;;;11.25;10.35;;;;;;;;;;5088069;28;24398;-46
2022/08/15 06:17:02;;;;;;;11.40;10.55;;;;;;;;;;5088195;28;24512;-46
2022/08/15 06:19:30;;;;;;;11.57;10.50;;;;;;;;;;5087934;28;24536;-46
2022/08/15 06:22:14;;;;;;;13.20;12.00;;;;;;;;;;5087729;28;24410;-46
2022/08/15 06:24:42;;;;;;;11.60;10.50;;;;;;;;;;5088222;28;24406;-46
2022/08/15 06:27:18;;;;;;;10.65;9.65;;;;;;;;;;5087487;28;24394;-46
2022/08/15 06:29:47;;;;;;;12.05;11.05;;;;;;;;;;5088233;28;24447;-46
2022/08/15 06:32:33;;;;;;;11.40;10.43;;;;;;;;;;5087781;28;24394;-46
2022/08/15 06:35:02;;;;;;;11.05;10.05;;;;;;;;;;5087438;28;24421;-46
2022/08/15 06:37:27;;;;;;;10.70;9.75;;;;;;;;;;5087095;28;24398;-47
2022/08/15 06:39:52;;;;;;;14.98;10.93;;;;;;;;;;5087815;28;24390;-46
2022/08/15 06:42:18;;;;;;;12.25;11.15;;;;;;;;;;5087234;28;24414;-46
2022/08/15 06:44:46;;;;;;;11.45;10.55;;;;;;;;;;5087817;28;24433;-47
2022/08/15 06:47:12;;;;;;;12.47;11.27;;;;;;;;;;5086987;28;24796;-46
2022/08/15 06:49:44;;;;;;;10.90;10.00;;;;;;;;;;5087596;28;24402;-47
2022/08/15 06:52:10;;;;;;;12.20;11.10;;;;;;;;;;5086712;28;24536;-46
2022/08/15 06:54:35;;;;;;;11.80;10.80;;;;;;;;;;5087712;28;24555;-46
2022/08/15 06:57:08;;;;;;;12.77;11.47;;;;;;;;;;5087529;28;24394;-46
2022/08/15 06:59:45;;;;;;;12.98;11.77;;;;;;;;;;5087931;28;24504;-47
2022/08/15 07:02:10;;;;;;;11.52;10.60;;;;;;;;;;5086841;28;24422;-47
2022/08/15 07:04:48;;;;;;;12.48;11.38;;;;;;;;;;5087264;28;24398;-47
2022/08/15 07:07:26;;;;;;;10.80;10.00;;;;;;;;;;5087144;28;24920;-47
2022/08/15 07:10:09;;;;;;;11.80;10.80;;;;;;;;;;5087180;28;24628;-47
2022/08/15 07:12:44;;;;;;;12.90;11.80;;;;;;;;;;5086917;28;24394;-47
2022/08/15 07:15:19;;;;;;;11.98;10.98;;;;;;;;;;5086989;28;24925;-47
2022/08/15 07:17:56;;;;;;;12.98;11.88;;;;;;;;;;5087158;28;25091;-47
2022/08/15 07:20:22;;;;;;;12.25;11.07;;;;;;;;;;5087073;28;24514;-47
2022/08/15 07:22:47;;;;;;;12.87;11.77;;;;;;;;;;5086701;28;25024;-48
2022/08/15 07:25:18;;;;;;;12.00;11.00;;;;;;;;;;5086893;28;24968;-47
2022/08/15 07:27:53;;;;;;;11.40;10.50;;;;;;;;;;5087141;28;24402;-46
2022/08/15 07:30:20;;;;;;;12.30;11.20;;;;;;;;;;5087053;28;24588;-47
2022/08/15 07:32:53;;;;;;;10.65;9.85;;;;;;;;;;5088143;28;24502;-47
2022/08/15 07:35:24;;;;;;;12.40;11.30;;;;;;;;;;5090946;28;24421;-46
2022/08/15 07:37:51;;;;;;;10.35;9.55;;;;;;;;;;5090855;28;24390;-47
2022/08/15 07:40:19;;;;;;;11.40;10.50;;;;;;;;;;5091448;28;24414;-47
2022/08/15 07:42:44;;;;;;;11.80;10.70;;;;;;;;;;5090811;28;24421;-46
2022/08/15 07:45:14;;;;;;;11.50;10.50;;;;;;;;;;5090763;28;24969;-47
2022/08/15 07:47:39;;;;;;;10.85;10.02;;;;;;;;;;5091025;28;24441;-45
2022/08/15 07:50:06;;;;;;;11.40;10.50;;;;;;;;;;5090981;28;24390;-46
2022/08/15 07:52:31;;;;;;;11.48;10.48;;;;;;;;;;5090539;28;24394;-46
2022/08/15 07:55:10;;;;;;;12.10;10.97;;;;;;;;;;5090700;28;24473;-46
2022/08/15 07:57:37;;;;;;;12.30;11.30;;;;;;;;;;5090952;28;24924;-46
2022/08/15 08:00:09;;;;;;;12.50;11.40;;;;;;;;;;5090660;28;24455;-47
2022/08/15 08:02:40;;;;;;;12.10;11.20;;;;;;;;;;5090670;28;24409;-47
2022/08/15 08:05:06;;;;;;;11.30;10.40;;;;;;;;;;5090528;28;24491;-47
2022/08/15 08:07:36;;;;;;;10.70;9.90;;;;;;;;;;5090674;28;24951;-47
2022/08/15 08:10:08;;;;;;;12.32;11.27;;;;;;;;;;5091069;28;24409;-47
2022/08/15 08:12:45;;;;;;;12.23;11.23;;;;;;;;;;5090246;28;24397;-47
2022/08/15 08:15:10;;;;;;;11.73;10.73;;;;;;;;;;5090157;28;24402;-47
2022/08/15 08:17:42;;;;;;;11.43;10.30;;;;;;;;;;5090013;28;24393;-47
2022/08/15 08:20:27;;;;;;;11.45;10.45;;;;;;;;;;5090147;28;24655;-47
2022/08/15 08:22:52;;;;;;;12.20;11.30;;;;;;;;;;5089713;28;24745;-47
2022/08/15 08:25:24;;;;;;;11.07;10.23;;;;;;;;;;5089704;28;24762;-47
2022/08/15 08:27:52;;;;;;;11.93;10.85;;;;;;;;;;5090050;28;24399;-47
2022/08/15 08:30:23;;;;;;;11.80;10.80;;;;;;;;;;5089877;28;24803;-47
2022/08/15 08:32:55;;;;;;;11.43;10.40;;;;;;;;;;5089982;28;24394;-47
2022/08/15 08:35:33;;;;;;;11.95;10.95;;;;;;;;;;5089699;28;24387;-47
2022/08/15 08:38:19;;;;;;;10.95;10.05;;;;;;;;;;5089893;28;24966;-46
2022/08/15 08:43:49;;;;;;;11.13;10.23;;;;;;;;;;5090072;28;24450;-47
2022/08/15 08:46:33;;;;;;;10.85;10.00;;;;;;;;;;5089472;28;24406;-47
2022/08/15 08:49:09;;;;;;;11.05;10.15;;;;;;;;;;5089386;28;24418;-47
2022/08/15 08:51:57;;;;;;;10.20;9.50;;;;;;;;;;5089059;28;21389;-46
2022/08/15 08:54:22;;;;;;;10.70;9.90;;;;;;;;;;5089216;28;24410;-47
2022/08/15 08:56:50;;;;;;;11.20;10.30;;;;;;;;;;5089458;28;24402;-47
2022/08/15 08:59:16;;;;;;;11.45;10.45;;;;;;;;;;5088909;28;24544;-46
2022/08/15 09:01:42;;;;;;;10.82;9.93;;;;;;;;;;5089486;28;24467;-46
2022/08/15 09:04:13;;;;;;;12.65;11.40;;;;;;;;;;5089812;28;24409;-47
2022/08/15 09:06:40;;;;;;;10.90;10.10;;;;;;;;;;5089328;28;24406;-47
2022/08/15 09:09:24;;;;;;;11.48;10.57;;;;;;;;;;5089495;28;24390;-47
2022/08/15 09:11:54;;;;;;;10.77;9.88;;;;;;;;;;5089142;28;24404;-47
2022/08/15 09:14:22;;;;;;;11.20;10.40;;;;;;;;;;5089166;28;24959;-48
2022/08/15 09:16:49;;;;;;;10.60;9.80;;;;;;;;;;5089631;28;24453;-46
2022/08/15 09:19:29;;;;;;;11.20;10.40;;;;;;;;;;5089101;28;24447;-46
2022/08/15 09:21:54;;;;;;;11.30;10.40;;;;;;;;;;5088432;28;24492;-47
2022/08/15 09:24:20;;;;;;;11.02;10.13;;;;;;;;;;5088863;28;24438;-46
2022/08/15 09:27:04;;;;;;;11.13;10.23;;;;;;;;;;5089062;28;24491;-47
2022/08/15 09:29:37;;;;;;;10.48;9.60;;;;;;;;;;5089085;28;24619;-47
2022/08/15 09:32:41;;;;;;;10.52;9.75;;;;;;;;;;5088642;28;24509;-47
2022/08/15 09:35:07;;;;;;;10.50;9.70;;;;;;;;;;5066053;28;24427;-47
2022/08/15 09:37:54;;;;;;;11.30;10.30;;;;;;;;;;5065947;28;24420;-46
2022/08/15 09:40:32;;;;;;;11.30;10.50;;;;;;;;;;5079992;28;24452;-47
2022/08/15 09:43:12;;;;;;;10.30;9.50;;;;;;;;;;5088170;28;24398;-47
2022/08/15 09:45:50;;;;;;;10.10;9.25;;;;;;;;;;5088459;28;24384;-47
2022/08/15 09:48:33;;;;;;;10.38;9.57;;;;;;;;;;5088018;28;24581;-47
2022/08/15 09:50:58;;;;;;;11.45;10.50;;;;;;;;;;5088468;28;24811;-48
2022/08/15 09:53:40;;;;;;;11.80;11.00;;;;;;;;;;5088184;28;24834;-47
2022/08/15 09:56:09;;;;;;;11.20;10.30;;;;;;;;;;5088411;28;24390;-47
2022/08/15 09:58:35;;;;;;;10.43;9.63;;;;;;;;;;5088248;28;24448;-47
2022/08/15 10:01:19;;;;;;;10.40;9.60;;;;;;;;;;5088575;28;24424;-48
2022/08/15 10:03:44;;;;;;;9.63;8.93;;;;;;;;;;5088062;28;24417;-48
2022/08/15 10:06:11;;;;;;;9.88;9.18;;;;;;;;;;5088573;28;24382;-47
2022/08/15 10:08:55;;;;;;;10.67;9.87;;;;;;;;;;5088277;28;24394;-47
2022/08/15 10:11:27;;;;;;;10.85;10.05;;;;;;;;;;5088319;28;24482;-47
2022/08/15 10:14:05;;;;;;;10.63;9.82;;;;;;;;;;5088140;28;24418;-47
2022/08/15 10:16:36;;;;;;;11.25;10.35;;;;;;;;;;5088257;28;24972;-48
2022/08/15 10:19:02;;;;;;;9.85;9.15;;;;;;;;;;5088213;28;24406;-48
2022/08/15 10:21:35;;;;;;;10.15;9.35;;;;;;;;;;5088110;28;25028;-47
2022/08/15 10:24:02;;;;;;;9.63;8.87;;;;;;;;;;5088187;28;24410;-47
2022/08/15 10:26:28;;;;;;;9.73;8.93;;;;;;;;;;5087588;28;24402;-47
2022/08/15 10:29:03;;;;;;;9.27;8.57;;;;;;;;;;5087768;28;24931;-46
2022/08/15 10:31:36;;;;;;;10.40;9.60;;;;;;;;;;5087741;28;24442;-46
2022/08/15 10:34:02;;;;;;;10.60;9.80;;;;;;;;;;5087787;28;24952;-46
2022/08/15 10:36:29;;;;;;;10.30;9.50;;;;;;;;;;5087784;28;24426;-49
2022/08/15 10:39:08;;;;;;;10.63;9.82;;;;;;;;;;5087633;28;24571;-46
2022/08/15 10:41:34;;;;;;;10.35;9.55;;;;;;;;;;5087408;28;24503;-47
2022/08/15 10:44:14;;;;;;;10.93;10.10;;;;;;;;;;5087480;28;24475;-46
2022/08/15 10:46:45;;;;;;;10.23;9.52;;;;;;;;;;5087629;28;24385;-47
2022/08/15 10:49:38;;;;;;;9.27;8.57;;;;;;;;;;5087618;28;24398;-48
2022/08/15 10:52:16;;;;;;;10.20;9.40;;;;;;;;;;5088136;28;24405;-46
2022/08/15 10:55:00;;;;;;;10.30;9.50;;;;;;;;;;5088068;28;24393;-47
2022/08/15 10:57:30;;;;;;;10.27;9.38;;;;;;;;;;5087835;28;24448;-47
2022/08/15 10:59:55;;;;;;;9.80;9.10;;;;;;;;;;5087027;28;24980;-46
2022/08/15 11:02:20;;;;;;;10.20;9.40;;;;;;;;;;5086961;28;24513;-46
2022/08/15 11:04:46;;;;;;;9.70;8.90;;;;;;;;;;5087544;28;24402;-47
2022/08/15 11:07:30;;;;;;;9.43;8.75;;;;;;;;;;5086375;28;24451;-47
2022/08/15 11:09:57;;;;;;;9.32;8.63;;;;;;;;;;5087020;28;24822;-46
2022/08/15 11:12:24;;;;;;;9.35;8.75;;;;;;;;;;5087019;28;24780;-46
2022/08/15 11:14:54;;;;;;;10.82;9.93;;;;;;;;;;5087327;28;24402;-46
2022/08/15 11:17:22;;;;;;;9.90;9.10;;;;;;;;;;5087355;28;24406;-47
2022/08/15 11:19:49;;;;;;;9.27;8.65;;;;;;;;;;5087658;28;24955;-47
2022/08/15 11:22:26;;;;;;;9.65;8.98;;;;;;;;;;5086486;28;24538;-47
2022/08/15 11:25:00;;;;;;;9.50;8.90;;;;;;;;;;5087427;28;24494;-50
2022/08/15 11:27:27;;;;;;;9.95;9.15;;;;;;;;;;5086985;28;24416;-47
2022/08/15 11:29:54;;;;;;;9.32;8.63;;;;;;;;;;5087403;28;24752;-47
2022/08/15 11:32:31;;;;;;;9.80;9.00;;;;;;;;;;5086677;28;24928;-47
2022/08/15 11:34:57;;;;;;;9.45;8.70;;;;;;;;;;5087065;28;24547;-46
2022/08/15 11:37:27;;;;;;;10.23;9.23;;;;;;;;;;5087177;28;24992;-46
2022/08/15 11:39:58;;;;;;;10.35;9.45;;;;;;;;;;5086862;28;24999;-47
2022/08/15 11:42:25;;;;;;;9.20;8.50;;;;;;;;;;5086780;28;24428;-47
2022/08/15 11:44:56;;;;;;;8.43;7.82;;;;;;;;;;5087115;28;24433;-48
2022/08/15 11:47:22;;;;;;;8.85;8.05;;;;;;;;;;5086832;28;24435;-47
2022/08/15 11:49:49;;;;;;;8.77;8.17;;;;;;;;;;5087097;28;24382;-47
2022/08/15 11:52:19;;;;;;;9.00;8.30;;;;;;;;;;5086070;28;24395;-47
2022/08/15 11:54:44;;;;;;;8.90;8.30;;;;;;;;;;5086324;28;24440;-48
2022/08/15 11:57:19;;;;;;;9.60;8.80;;;;;;;;;;5086847;28;24788;-47
2022/08/15 11:59:56;;;;;;;9.40;8.63;;;;;;;;;;5086516;28;25018;-46
2022/08/15 12:02:21;;;;;;;9.32;8.63;;;;;;;;;;5086374;28;24426;-47
2022/08/15 12:04:47;;;;;;;9.10;8.30;;;;;;;;;;5086952;28;24950;-47
2022/08/15 12:07:15;;;;;;;9.30;8.50;;;;;;;;;;5086235;28;24801;-47
2022/08/15 12:09:48;;;;;;;8.43;7.90;;;;;;;;;;5087206;28;24394;-47
2022/08/15 12:12:26;;;;;;;9.10;8.30;;;;;;;;;;5086264;28;24757;-47
2022/08/15 12:14:55;;;;;;;8.40;7.80;;;;;;;;;;5086341;28;24483;-47
2022/08/15 12:17:28;;;;;;;9.27;8.57;;;;;;;;;;5086595;28;24517;-47
2022/08/15 12:19:55;;;;;;;8.20;7.60;;;;;;;;;;5089497;28;24401;-47
2022/08/15 12:22:29;;;;;;;8.50;7.90;;;;;;;;;;5090240;28;24421;-46
2022/08/15 12:24:55;;;;;;;8.80;8.10;;;;;;;;;;5090110;28;24467;-47
2022/08/15 12:27:20;;;;;;;8.52;7.63;;;;;;;;;;5090154;28;24467;-46
2022/08/15 12:29:45;;;;;;;7.47;6.97;;;;;;;;;;5090355;28;24430;-48
2022/08/15 12:32:12;;;;;;;7.53;7.00;;;;;;;;;;5090215;28;24398;-47
2022/08/15 12:34:39;;;;;;;7.50;6.90;;;;;;;;;;5089906;28;24981;-46
2022/08/15 12:37:06;;;;;;;6.80;6.30;;;;;;;;;;5089783;28;24394;-47
2022/08/15 12:39:33;;;;;;;6.30;5.90;;;;;;;;;;5090201;28;25053;-46
2022/08/15 12:41:58;;;;;;;6.00;5.60;;;;;;;;;;5089699;28;24432;-46
2022/08/15 12:44:28;;;;;;;5.80;5.40;;;;;;;;;;5089450;28;24435;-46
2022/08/15 12:46:54;;;;;;;6.50;6.00;;;;;;;;;;5089879;28;24418;-47
2022/08/15 12:49:19;;;;;;;6.05;5.55;;;;;;;;;;5089695;28;24379;-47
2022/08/15 12:51:45;;;;;;;6.10;5.60;;;;;;;;;;5090156;28;24489;-47
2022/08/15 12:54:10;;;;;;;5.50;5.10;;;;;;;;;;5089794;28;24945;-46
2022/08/15 12:56:35;;;;;;;5.90;5.50;;;;;;;;;;5089530;28;24445;-47
2022/08/15 12:59:05;;;;;;;6.10;5.60;;;;;;;;;;5089831;28;24948;-48
2022/08/15 13:01:32;;;;;;;5.35;5.05;;;;;;;;;;5089256;28;24451;-46
2022/08/15 13:03:57;;;;;;;5.20;4.90;;;;;;;;;;5089279;28;24422;-44
2022/08/15 13:06:32;;;;;;;5.73;5.23;;;;;;;;;;5089364;28;24398;-46
2022/08/15 13:08:57;;;;;;;5.32;5.03;;;;;;;;;;5088966;28;24501;-46
2022/08/15 13:11:22;;;;;;;6.00;5.50;;;;;;;;;;5089562;28;24530;-45
2022/08/15 13:13:48;;;;;;;5.88;5.38;;;;;;;;;;5089655;28;24406;-46
2022/08/15 13:16:14;;;;;;;5.78;5.38;;;;;;;;;;5089204;28;24501;-46
2022/08/15 13:18:39;;;;;;;5.70;5.30;;;;;;;;;;5089400;28;24971;-46
2022/08/15 13:23:51;;;;;;;5.90;5.50;;;;;;;;;;5088789;28;24768;-47
2022/08/15 13:26:17;;;;;;;5.97;5.38;;;;;;;;;;5089095;28;24405;-47
2022/08/15 13:28:44;;;;;;;6.03;5.57;;;;;;;;;;5088990;28;24535;-47
2022/08/15 13:31:10;;;;;;;6.20;5.70;;;;;;;;;;5087900;28;24417;-47
2022/08/15 13:33:37;;;;;;;6.00;5.60;;;;;;;;;;5088765;28;24397;-46
2022/08/15 13:36:03;;;;;;;6.00;5.60;;;;;;;;;;5088839;28;24394;-47
2022/08/15 13:38:29;;;;;;;5.97;5.47;;;;;;;;;;5088872;28;24402;-46
2022/08/15 13:40:54;;;;;;;6.33;5.83;;;;;;;;;;5088779;28;24422;-46
2022/08/15 13:43:20;;;;;;;6.70;6.20;;;;;;;;;;5088502;28;24425;-46
2022/08/15 13:45:45;;;;;;;7.10;6.60;;;;;;;;;;5088624;28;24394;-47
2022/08/15 13:48:13;;;;;;;7.10;6.50;;;;;;;;;;5088549;28;24932;-46
2022/08/15 13:50:41;;;;;;;7.10;6.57;;;;;;;;;;5088357;28;25031;-47
2022/08/15 13:53:06;;;;;;;7.25;6.75;;;;;;;;;;5088273;28;24928;-46
2022/08/15 13:55:32;;;;;;;7.43;6.90;;;;;;;;;;5088279;28;24378;-46
2022/08/15 13:57:57;;;;;;;6.80;6.40;;;;;;;;;;5088472;28;24841;-46
2022/08/15 14:00:23;;;;;;;7.10;6.60;;;;;;;;;;5087999;28;24931;-46
2022/08/15 14:02:49;;;;;;;7.20;6.60;;;;;;;;;;5088538;28;25021;-47
2022/08/15 14:05:17;;;;;;;7.95;7.35;;;;;;;;;;5088148;28;24401;-48
2022/08/15 14:07:46;;;;;;;7.80;7.15;;;;;;;;;;5088419;28;24398;-47
2022/08/15 14:10:16;;;;;;;8.40;7.70;;;;;;;;;;5088351;28;25020;-47
2022/08/15 14:12:43;;;;;;;7.77;7.20;;;;;;;;;;5088116;28;24425;-46
2022/08/15 14:15:11;;;;;;;7.65;7.05;;;;;;;;;;5088248;28;24390;-48
2022/08/15 14:17:36;;;;;;;7.65;7.00;;;;;;;;;;5087746;28;24421;-47
2022/08/15 14:20:04;;;;;;;6.40;5.90;;;;;;;;;;5088031;28;24449;-47
2022/08/15 14:22:29;;;;;;;6.63;6.03;;;;;;;;;;5088020;28;24482;-48
2022/08/15 14:24:56;;;;;;;6.40;5.90;;;;;;;;;;5088227;28;24967;-47
2022/08/15 14:27:22;;;;;;;6.20;5.70;;;;;;;;;;5088103;28;24379;-48
2022/08/15 14:29:48;;;;;;;5.83;5.50;;;;;;;;;;5088010;28;24379;-46
2022/08/15 14:32:15;;;;;;;5.57;5.18;;;;;;;;;;5087702;28;24989;-45
2022/08/15 14:34:40;;;;;;;5.45;5.03;;;;;;;;;;5087577;28;24463;-46
2022/08/15 14:37:08;;;;;;;6.30;5.80;;;;;;;;;;5087411;28;24382;-47
2022/08/15 14:39:33;;;;;;;8.75;8.00;;;;;;;;;;5088071;28;24398;-47
2022/08/15 14:41:58;;;;;;;8.77;8.17;;;;;;;;;;5087417;28;24421;-48